createdAt,value
2022-09-18T08:23:03.857Z,0.70
2022-09-18T08:27:05.846Z,0.60
2022-09-18T08:31:07.675Z,0.90
2022-09-18T08:35:11.215Z,0.70
2022-09-18T08:43:28.143Z,0.60
2022-09-18T08:47:41.194Z,0.50
2022-09-18T08:52:09.231Z,0.60
2022-09-18T08:56:16.816Z,0.70
2022-09-18T09:04:28.456Z,0.88
2022-09-18T09:12:54.145Z,0.80
2022-09-18T09:17:09.896Z,0.77
2022-09-18T09:25:32.487Z,0.87
2022-09-18T09:29:39.129Z,1.00
2022-09-18T09:34:01.154Z,0.60
2022-09-18T10:13:16.352Z,0.82
2022-09-18T10:17:20.676Z,0.77
2022-09-18T10:21:27.090Z,0.80
2022-09-18T10:26:01.787Z,0.93
2022-09-18T11:07:35.357Z,1.30
2022-09-18T11:11:42.265Z,0.90
2022-09-18T12:00:04.756Z,1.10
2022-09-18T18:19:15.793Z,0.90
2022-09-18T18:23:17.885Z,1.00
2022-09-18T18:27:21.078Z,0.93
2022-09-18T18:31:25.406Z,0.90
2022-09-18T18:35:27.797Z,1.30
2022-09-18T18:47:37.406Z,1.00
2022-09-18T18:51:45.927Z,1.33
2022-09-18T18:55:49.193Z,1.15
2022-09-18T18:59:51.378Z,1.13
2022-09-18T19:03:59.912Z,1.20
2022-09-18T19:08:02.033Z,1.30
2022-09-18T19:12:04.089Z,0.77
2022-09-18T19:16:06.016Z,1.02
2022-09-18T19:20:08.343Z,1.13
2022-09-18T19:24:13.316Z,1.20
2022-09-18T19:28:18.811Z,1.50
2022-09-18T19:32:21.018Z,1.30
2022-09-18T19:36:27.693Z,1.52
2022-09-18T19:40:34.795Z,1.88
2022-09-18T19:44:58.943Z,1.30
2022-09-18T19:49:00.616Z,1.90
2022-09-18T19:53:02.822Z,1.50
2022-09-18T19:57:04.566Z,1.23
2022-09-18T20:01:10.400Z,1.38
2022-09-18T20:05:12.417Z,1.50
2022-09-18T20:09:14.038Z,1.50
2022-09-18T20:13:16.008Z,1.50
2022-09-18T20:17:17.756Z,1.80
2022-09-18T20:21:21.384Z,1.48
2022-09-18T20:25:25.038Z,1.50
2022-09-18T20:29:27.491Z,1.40
2022-09-18T20:33:29.522Z,1.30
2022-09-18T20:37:33.968Z,1.50
2022-09-18T20:41:35.658Z,1.52
2022-09-18T20:45:37.320Z,1.35
2022-09-18T20:49:40.114Z,1.85
2022-09-18T20:53:44.829Z,1.70
2022-09-18T20:57:46.589Z,1.50
2022-09-18T21:01:48.540Z,1.48
2022-09-18T21:06:02.705Z,1.40
2022-09-18T21:10:13.691Z,1.50
2022-09-18T21:14:16.021Z,1.55
2022-09-18T21:18:18.633Z,1.50
2022-09-18T21:22:20.418Z,1.50
2022-09-18T21:26:33.129Z,1.35
2022-09-18T21:30:34.831Z,1.50
2022-09-18T21:34:36.529Z,1.63
2022-09-18T21:38:39.948Z,1.40
2022-09-18T21:42:43.244Z,1.60
2022-09-18T21:46:47.892Z,1.42
2022-09-18T21:50:49.678Z,1.50
2022-09-18T21:54:52.283Z,1.40
2022-09-18T21:58:55.101Z,1.52
2022-09-18T22:02:56.723Z,1.25
2022-09-18T22:07:01.393Z,1.30
2022-09-18T22:11:04.239Z,1.50
2022-09-18T22:15:06.279Z,1.70
2022-09-18T22:19:11.109Z,1.77
2022-09-18T22:23:12.803Z,1.35
2022-09-18T22:27:14.447Z,1.30
2022-09-18T22:31:16.266Z,1.20
2022-09-18T22:35:17.907Z,1.10
2022-09-18T22:39:21.216Z,1.30
2022-09-18T22:43:22.976Z,1.42
2022-09-18T22:47:24.677Z,1.10
2022-09-18T22:51:27.531Z,1.30
2022-09-18T22:55:31.334Z,1.23
2022-09-18T22:59:32.960Z,1.25
2022-09-18T23:03:34.901Z,1.30
2022-09-18T23:07:38.812Z,1.20
2022-09-18T23:11:44.676Z,1.48
2022-09-18T23:15:46.498Z,1.30
2022-09-18T23:19:48.154Z,1.10
